sensor_id;sensor_type;location;lat;lon;timestamp;P1;durP1;ratioP1;P2;durP2;ratioP2
19733;SDS011;10018;51.230;7.860;2024-03-25T00:00:56;16.57;;;7.67;;
19733;SDS011;10018;51.230;7.860;2024-03-25T00:03:22;23.70;;;7.87;;
19733;SDS011;10018;51.230;7.860;2024-03-25T00:05:48;25.27;;;8.87;;
19733;SDS011;10018;51.230;7.860;2024-03-25T00:08:13;23.03;;;9.13;;
19733;SDS011;10018;51.230;7.860;2024-03-25T00:10:39;19.13;;;7.50;;
19733;SDS011;10018;51.230;7.860;2024-03-25T00:13:04;24.00;;;8.90;;
19733;SDS011;10018;51.230;7.860;2024-03-25T00:15:30;19.73;;;7.93;;
19733;SDS011;10018;51.230;7.860;2024-03-25T00:17:55;20.70;;;8.43;;
19733;SDS011;10018;51.230;7.860;2024-03-25T00:20:21;21.93;;;8.17;;
19733;SDS011;10018;51.230;7.860;2024-03-25T00:22:55;25.87;;;8.53;;
19733;SDS011;10018;51.230;7.860;2024-03-25T00:25:21;27.43;;;9.10;;
19733;SDS011;10018;51.230;7.860;2024-03-25T00:27:46;24.37;;;8.50;;
19733;SDS011;10018;51.230;7.860;2024-03-25T00:30:15;21.60;;;8.33;;
19733;SDS011;10018;51.230;7.860;2024-03-25T00:32:43;23.30;;;8.50;;
19733;SDS011;10018;51.230;7.860;2024-03-25T00:35:08;18.27;;;7.30;;
19733;SDS011;10018;51.230;7.860;2024-03-25T00:37:34;26.70;;;7.83;;
19733;SDS011;10018;51.230;7.860;2024-03-25T00:39:59;17.17;;;7.17;;
19733;SDS011;10018;51.230;7.860;2024-03-25T00:42:25;19.63;;;7.97;;
19733;SDS011;10018;51.230;7.860;2024-03-25T00:44:51;26.13;;;8.97;;
19733;SDS011;10018;51.230;7.860;2024-03-25T00:47:16;26.50;;;8.63;;
19733;SDS011;10018;51.230;7.860;2024-03-25T00:49:42;27.30;;;8.60;;
19733;SDS011;10018;51.230;7.860;2024-03-25T00:52:07;20.37;;;7.53;;
19733;SDS011;10018;51.230;7.860;2024-03-25T00:54:33;21.40;;;7.27;;
19733;SDS011;10018;51.230;7.860;2024-03-25T00:56:58;21.23;;;6.73;;
19733;SDS011;10018;51.230;7.860;2024-03-25T00:59:26;25.27;;;7.20;;
19733;SDS011;10018;51.230;7.860;2024-03-25T01:01:52;24.03;;;6.60;;
19733;SDS011;10018;51.230;7.860;2024-03-25T01:04:17;21.13;;;6.63;;
19733;SDS011;10018;51.230;7.860;2024-03-25T01:06:43;22.70;;;6.97;;
19733;SDS011;10018;51.230;7.860;2024-03-25T01:09:08;26.30;;;7.37;;
19733;SDS011;10018;51.230;7.860;2024-03-25T01:11:35;18.93;;;6.93;;
19733;SDS011;10018;51.230;7.860;2024-03-25T01:14:00;18.20;;;7.33;;
19733;SDS011;10018;51.230;7.860;2024-03-25T01:16:26;23.07;;;7.33;;
19733;SDS011;10018;51.230;7.860;2024-03-25T01:18:52;21.70;;;7.33;;
19733;SDS011;10018;51.230;7.860;2024-03-25T01:21:18;24.17;;;8.20;;
19733;SDS011;10018;51.230;7.860;2024-03-25T01:23:44;18.90;;;7.00;;
19733;SDS011;10018;51.230;7.860;2024-03-25T01:26:09;15.80;;;7.20;;
19733;SDS011;10018;51.230;7.860;2024-03-25T01:28:35;16.00;;;6.90;;
19733;SDS011;10018;51.230;7.860;2024-03-25T01:31:01;23.40;;;7.57;;
19733;SDS011;10018;51.230;7.860;2024-03-25T01:33:26;17.67;;;6.63;;
19733;SDS011;10018;51.230;7.860;2024-03-25T01:35:52;19.73;;;6.80;;
19733;SDS011;10018;51.230;7.860;2024-03-25T01:38:20;17.17;;;6.47;;
19733;SDS011;10018;51.230;7.860;2024-03-25T01:40:49;19.77;;;6.70;;
19733;SDS011;10018;51.230;7.860;2024-03-25T01:43:14;19.43;;;6.27;;
19733;SDS011;10018;51.230;7.860;2024-03-25T01:45:40;18.67;;;6.70;;
19733;SDS011;10018;51.230;7.860;2024-03-25T01:48:07;23.23;;;7.23;;
19733;SDS011;10018;51.230;7.860;2024-03-25T01:50:35;24.13;;;7.10;;
19733;SDS011;10018;51.230;7.860;2024-03-25T01:53:04;19.97;;;6.37;;
19733;SDS011;10018;51.230;7.860;2024-03-25T01:55:30;16.43;;;5.43;;
19733;SDS011;10018;51.230;7.860;2024-03-25T01:57:57;14.03;;;5.63;;
19733;SDS011;10018;51.230;7.860;2024-03-25T02:00:24;23.93;;;6.07;;
19733;SDS011;10018;51.230;7.860;2024-03-25T02:02:51;17.77;;;6.20;;
19733;SDS011;10018;51.230;7.860;2024-03-25T02:05:17;18.37;;;5.50;;
19733;SDS011;10018;51.230;7.860;2024-03-25T02:07:46;16.57;;;6.43;;
19733;SDS011;10018;51.230;7.860;2024-03-25T02:10:13;21.20;;;6.00;;
19733;SDS011;10018;51.230;7.860;2024-03-25T02:12:41;17.17;;;5.73;;
19733;SDS011;10018;51.230;7.860;2024-03-25T02:15:10;18.43;;;5.67;;
19733;SDS011;10018;51.230;7.860;2024-03-25T02:17:38;17.43;;;5.27;;
19733;SDS011;10018;51.230;7.860;2024-03-25T02:20:04;24.87;;;5.77;;
19733;SDS011;10018;51.230;7.860;2024-03-25T02:22:34;22.13;;;5.80;;
19733;SDS011;10018;51.230;7.860;2024-03-25T02:25:06;19.60;;;4.97;;
19733;SDS011;10018;51.230;7.860;2024-03-25T02:27:34;16.20;;;5.23;;
19733;SDS011;10018;51.230;7.860;2024-03-25T02:30:09;16.97;;;6.10;;
19733;SDS011;10018;51.230;7.860;2024-03-25T02:32:41;20.60;;;5.40;;
19733;SDS011;10018;51.230;7.860;2024-03-25T02:35:08;13.37;;;4.63;;
19733;SDS011;10018;51.230;7.860;2024-03-25T02:37:35;19.87;;;5.63;;
19733;SDS011;10018;51.230;7.860;2024-03-25T02:40:03;16.77;;;5.90;;
19733;SDS011;10018;51.230;7.860;2024-03-25T02:42:31;23.27;;;5.13;;
19733;SDS011;10018;51.230;7.860;2024-03-25T02:44:57;16.33;;;5.27;;
19733;SDS011;10018;51.230;7.860;2024-03-25T02:47:25;21.70;;;5.47;;
19733;SDS011;10018;51.230;7.860;2024-03-25T02:49:51;15.83;;;4.37;;
19733;SDS011;10018;51.230;7.860;2024-03-25T02:52:19;26.20;;;5.37;;
19733;SDS011;10018;51.230;7.860;2024-03-25T02:54:46;22.00;;;5.30;;
19733;SDS011;10018;51.230;7.860;2024-03-25T02:57:11;25.07;;;5.80;;
19733;SDS011;10018;51.230;7.860;2024-03-25T02:59:37;16.97;;;4.70;;
19733;SDS011;10018;51.230;7.860;2024-03-25T03:02:02;21.97;;;5.33;;
19733;SDS011;10018;51.230;7.860;2024-03-25T03:04:28;18.37;;;5.10;;
19733;SDS011;10018;51.230;7.860;2024-03-25T03:06:56;20.20;;;5.83;;
19733;SDS011;10018;51.230;7.860;2024-03-25T03:09:22;20.13;;;5.80;;
19733;SDS011;10018;51.230;7.860;2024-03-25T03:11:48;24.13;;;5.03;;
19733;SDS011;10018;51.230;7.860;2024-03-25T03:14:13;24.10;;;5.67;;
19733;SDS011;10018;51.230;7.860;2024-03-25T03:16:39;25.77;;;6.03;;
19733;SDS011;10018;51.230;7.860;2024-03-25T03:19:07;21.33;;;5.20;;
19733;SDS011;10018;51.230;7.860;2024-03-25T03:21:32;22.03;;;6.03;;
19733;SDS011;10018;51.230;7.860;2024-03-25T03:23:58;24.60;;;5.93;;
19733;SDS011;10018;51.230;7.860;2024-03-25T03:26:23;22.23;;;6.57;;
19733;SDS011;10018;51.230;7.860;2024-03-25T03:28:52;26.27;;;6.83;;
19733;SDS011;10018;51.230;7.860;2024-03-25T03:31:25;26.63;;;6.07;;
19733;SDS011;10018;51.230;7.860;2024-03-25T03:33:51;27.43;;;6.97;;
19733;SDS011;10018;51.230;7.860;2024-03-25T03:36:21;21.83;;;6.30;;
19733;SDS011;10018;51.230;7.860;2024-03-25T03:38:49;21.33;;;6.27;;
19733;SDS011;10018;51.230;7.860;2024-03-25T03:41:16;22.07;;;6.63;;
19733;SDS011;10018;51.230;7.860;2024-03-25T03:43:41;20.90;;;6.30;;
19733;SDS011;10018;51.230;7.860;2024-03-25T03:46:07;16.60;;;6.37;;
19733;SDS011;10018;51.230;7.860;2024-03-25T03:48:32;23.57;;;6.27;;
19733;SDS011;10018;51.230;7.860;2024-03-25T03:50:58;20.33;;;6.93;;
19733;SDS011;10018;51.230;7.860;2024-03-25T03:53:23;25.43;;;6.33;;
19733;SDS011;10018;51.230;7.860;2024-03-25T03:55:53;24.10;;;7.30;;
19733;SDS011;10018;51.230;7.860;2024-03-25T03:58:22;26.53;;;6.93;;
19733;SDS011;10018;51.230;7.860;2024-03-25T04:00:48;22.10;;;6.53;;
19733;SDS011;10018;51.230;7.860;2024-03-25T04:03:15;19.53;;;7.43;;
19733;SDS011;10018;51.230;7.860;2024-03-25T04:05:40;21.17;;;6.83;;
19733;SDS011;10018;51.230;7.860;2024-03-25T04:08:06;22.73;;;6.70;;
19733;SDS011;10018;51.230;7.860;2024-03-25T04:10:32;19.50;;;7.27;;
19733;SDS011;10018;51.230;7.860;2024-03-25T04:12:58;24.43;;;7.13;;
19733;SDS011;10018;51.230;7.860;2024-03-25T04:15:24;23.73;;;7.07;;
19733;SDS011;10018;51.230;7.860;2024-03-25T04:17:51;30.03;;;7.30;;
19733;SDS011;10018;51.230;7.860;2024-03-25T04:20:16;27.20;;;7.07;;
19733;SDS011;10018;51.230;7.860;2024-03-25T04:22:45;24.97;;;7.43;;
19733;SDS011;10018;51.230;7.860;2024-03-25T04:25:13;27.50;;;6.93;;
19733;SDS011;10018;51.230;7.860;2024-03-25T04:27:39;23.73;;;7.33;;
19733;SDS011;10018;51.230;7.860;2024-03-25T04:30:08;27.53;;;7.57;;
19733;SDS011;10018;51.230;7.860;2024-03-25T04:32:36;24.23;;;7.07;;
19733;SDS011;10018;51.230;7.860;2024-03-25T04:35:02;19.20;;;7.03;;
19733;SDS011;10018;51.230;7.860;2024-03-25T04:37:29;26.33;;;6.87;;
19733;SDS011;10018;51.230;7.860;2024-03-25T04:39:55;25.10;;;7.33;;
19733;SDS011;10018;51.230;7.860;2024-03-25T04:42:23;20.03;;;7.50;;
19733;SDS011;10018;51.230;7.860;2024-03-25T04:44:49;19.73;;;6.63;;
19733;SDS011;10018;51.230;7.860;2024-03-25T04:47:15;24.00;;;6.80;;
19733;SDS011;10018;51.230;7.860;2024-03-25T04:49:41;23.67;;;7.20;;
19733;SDS011;10018;51.230;7.860;2024-03-25T04:52:16;27.43;;;8.37;;
19733;SDS011;10018;51.230;7.860;2024-03-25T04:54:48;18.03;;;6.40;;
19733;SDS011;10018;51.230;7.860;2024-03-25T04:57:14;24.73;;;7.47;;
19733;SDS011;10018;51.230;7.860;2024-03-25T04:59:39;25.43;;;8.67;;
19733;SDS011;10018;51.230;7.860;2024-03-25T05:02:05;21.57;;;6.97;;
19733;SDS011;10018;51.230;7.860;2024-03-25T05:04:31;21.07;;;6.60;;
19733;SDS011;10018;51.230;7.860;2024-03-25T05:06:56;31.30;;;7.10;;
19733;SDS011;10018;51.230;7.860;2024-03-25T05:09:22;24.03;;;7.77;;
19733;SDS011;10018;51.230;7.860;2024-03-25T05:11:50;23.33;;;7.50;;
19733;SDS011;10018;51.230;7.860;2024-03-25T05:14:16;21.03;;;8.23;;
19733;SDS011;10018;51.230;7.860;2024-03-25T05:16:41;24.47;;;7.57;;
19733;SDS011;10018;51.230;7.860;2024-03-25T05:19:07;27.13;;;8.27;;
19733;SDS011;10018;51.230;7.860;2024-03-25T05:21:32;17.87;;;7.20;;
19733;SDS011;10018;51.230;7.860;2024-03-25T05:23:58;32.37;;;8.30;;
19733;SDS011;10018;51.230;7.860;2024-03-25T05:26:24;24.13;;;7.83;;
19733;SDS011;10018;51.230;7.860;2024-03-25T05:28:54;27.53;;;8.20;;
19733;SDS011;10018;51.230;7.860;2024-03-25T05:31:20;19.10;;;7.23;;
19733;SDS011;10018;51.230;7.860;2024-03-25T05:33:45;20.60;;;8.00;;
19733;SDS011;10018;51.230;7.860;2024-03-25T05:36:11;17.60;;;7.33;;
19733;SDS011;10018;51.230;7.860;2024-03-25T05:38:36;20.43;;;6.80;;
19733;SDS011;10018;51.230;7.860;2024-03-25T05:41:03;26.67;;;7.43;;
19733;SDS011;10018;51.230;7.860;2024-03-25T05:43:29;27.07;;;8.00;;
19733;SDS011;10018;51.230;7.860;2024-03-25T05:45:54;22.13;;;7.30;;
19733;SDS011;10018;51.230;7.860;2024-03-25T05:48:21;23.97;;;6.90;;
19733;SDS011;10018;51.230;7.860;2024-03-25T05:51:03;25.30;;;8.00;;
19733;SDS011;10018;51.230;7.860;2024-03-25T05:53:30;23.47;;;7.17;;
19733;SDS011;10018;51.230;7.860;2024-03-25T05:55:56;20.03;;;7.20;;
19733;SDS011;10018;51.230;7.860;2024-03-25T05:58:24;21.43;;;6.90;;
19733;SDS011;10018;51.230;7.860;2024-03-25T06:00:52;23.90;;;7.20;;
19733;SDS011;10018;51.230;7.860;2024-03-25T06:03:18;19.53;;;7.00;;
19733;SDS011;10018;51.230;7.860;2024-03-25T06:05:44;21.90;;;7.27;;
19733;SDS011;10018;51.230;7.860;2024-03-25T06:08:09;25.83;;;8.00;;
19733;SDS011;10018;51.230;7.860;2024-03-25T06:10:45;21.43;;;7.53;;
19733;SDS011;10018;51.230;7.860;2024-03-25T06:13:11;23.70;;;8.17;;
19733;SDS011;10018;51.230;7.860;2024-03-25T06:15:38;22.67;;;7.47;;
19733;SDS011;10018;51.230;7.860;2024-03-25T06:18:04;22.97;;;7.70;;
19733;SDS011;10018;51.230;7.860;2024-03-25T06:20:29;33.73;;;8.43;;
19733;SDS011;10018;51.230;7.860;2024-03-25T06:22:55;28.40;;;7.93;;
19733;SDS011;10018;51.230;7.860;2024-03-25T06:25:20;23.10;;;8.03;;
19733;SDS011;10018;51.230;7.860;2024-03-25T06:27:46;21.23;;;7.20;;
19733;SDS011;10018;51.230;7.860;2024-03-25T06:30:12;25.17;;;7.23;;
19733;SDS011;10018;51.230;7.860;2024-03-25T06:32:56;28.00;;;8.80;;
19733;SDS011;10018;51.230;7.860;2024-03-25T06:35:43;29.97;;;7.60;;
19733;SDS011;10018;51.230;7.860;2024-03-25T06:38:09;21.53;;;7.20;;
19733;SDS011;10018;51.230;7.860;2024-03-25T06:40:35;22.07;;;7.03;;
19733;SDS011;10018;51.230;7.860;2024-03-25T06:43:01;22.50;;;7.50;;
19733;SDS011;10018;51.230;7.860;2024-03-25T06:45:27;18.93;;;6.83;;
19733;SDS011;10018;51.230;7.860;2024-03-25T06:47:52;21.13;;;7.37;;
19733;SDS011;10018;51.230;7.860;2024-03-25T06:50:18;21.03;;;7.30;;
19733;SDS011;10018;51.230;7.860;2024-03-25T06:52:43;19.03;;;6.50;;
19733;SDS011;10018;51.230;7.860;2024-03-25T06:55:09;18.70;;;7.37;;
19733;SDS011;10018;51.230;7.860;2024-03-25T06:57:37;18.50;;;7.50;;
19733;SDS011;10018;51.230;7.860;2024-03-25T07:00:02;19.97;;;7.97;;
19733;SDS011;10018;51.230;7.860;2024-03-25T07:02:32;27.73;;;7.77;;
19733;SDS011;10018;51.230;7.860;2024-03-25T07:04:57;24.03;;;7.67;;
19733;SDS011;10018;51.230;7.860;2024-03-25T07:07:23;25.03;;;7.27;;
19733;SDS011;10018;51.230;7.860;2024-03-25T07:09:50;18.47;;;7.20;;
19733;SDS011;10018;51.230;7.860;2024-03-25T07:12:16;16.20;;;7.47;;
19733;SDS011;10018;51.230;7.860;2024-03-25T07:14:42;27.10;;;8.00;;
19733;SDS011;10018;51.230;7.860;2024-03-25T07:17:07;21.07;;;6.87;;
19733;SDS011;10018;51.230;7.860;2024-03-25T07:19:33;18.97;;;6.40;;
19733;SDS011;10018;51.230;7.860;2024-03-25T07:21:58;20.63;;;6.80;;
19733;SDS011;10018;51.230;7.860;2024-03-25T07:24:24;21.70;;;7.03;;
19733;SDS011;10018;51.230;7.860;2024-03-25T07:26:49;23.77;;;7.33;;
19733;SDS011;10018;51.230;7.860;2024-03-25T07:29:16;16.60;;;6.47;;
19733;SDS011;10018;51.230;7.860;2024-03-25T07:31:41;19.20;;;5.90;;
19733;SDS011;10018;51.230;7.860;2024-03-25T07:34:07;15.80;;;5.93;;
19733;SDS011;10018;51.230;7.860;2024-03-25T07:36:36;25.80;;;6.73;;
19733;SDS011;10018;51.230;7.860;2024-03-25T07:39:02;17.43;;;5.93;;
19733;SDS011;10018;51.230;7.860;2024-03-25T07:41:33;16.67;;;6.23;;
19733;SDS011;10018;51.230;7.860;2024-03-25T07:43:58;15.37;;;5.90;;
19733;SDS011;10018;51.230;7.860;2024-03-25T07:46:24;20.87;;;5.73;;
19733;SDS011;10018;51.230;7.860;2024-03-25T07:48:49;22.20;;;6.87;;
19733;SDS011;10018;51.230;7.860;2024-03-25T07:51:15;18.90;;;6.60;;
19733;SDS011;10018;51.230;7.860;2024-03-25T07:53:41;19.60;;;7.10;;
19733;SDS011;10018;51.230;7.860;2024-03-25T07:56:06;19.17;;;7.27;;
19733;SDS011;10018;51.230;7.860;2024-03-25T07:58:32;18.10;;;6.27;;
19733;SDS011;10018;51.230;7.860;2024-03-25T08:00:57;17.33;;;6.43;;
19733;SDS011;10018;51.230;7.860;2024-03-25T08:03:23;24.60;;;7.07;;
19733;SDS011;10018;51.230;7.860;2024-03-25T08:05:50;26.57;;;8.60;;
19733;SDS011;10018;51.230;7.860;2024-03-25T08:08:15;19.23;;;6.60;;
19733;SDS011;10018;51.230;7.860;2024-03-25T08:10:41;24.30;;;7.17;;
19733;SDS011;10018;51.230;7.860;2024-03-25T08:13:06;21.93;;;6.87;;
19733;SDS011;10018;51.230;7.860;2024-03-25T08:15:32;17.37;;;6.13;;
19733;SDS011;10018;51.230;7.860;2024-03-25T08:17:58;17.77;;;6.33;;
19733;SDS011;10018;51.230;7.860;2024-03-25T08:20:23;19.20;;;6.90;;
19733;SDS011;10018;51.230;7.860;2024-03-25T08:22:49;18.07;;;6.27;;
19733;SDS011;10018;51.230;7.860;2024-03-25T08:25:14;26.37;;;7.03;;
19733;SDS011;10018;51.230;7.860;2024-03-25T08:27:40;17.67;;;6.60;;
19733;SDS011;10018;51.230;7.860;2024-03-25T08:30:05;19.80;;;6.30;;
19733;SDS011;10018;51.230;7.860;2024-03-25T08:32:32;25.27;;;6.70;;
19733;SDS011;10018;51.230;7.860;2024-03-25T08:34:57;16.17;;;5.27;;
19733;SDS011;10018;51.230;7.860;2024-03-25T08:37:23;18.03;;;5.20;;
19733;SDS011;10018;51.230;7.860;2024-03-25T08:39:49;15.67;;;4.63;;
19733;SDS011;10018;51.230;7.860;2024-03-25T08:42:14;12.47;;;4.13;;
19733;SDS011;10018;51.230;7.860;2024-03-25T08:44:40;20.40;;;5.13;;
19733;SDS011;10018;51.230;7.860;2024-03-25T08:47:05;18.70;;;4.67;;
19733;SDS011;10018;51.230;7.860;2024-03-25T08:49:31;15.63;;;4.37;;
19733;SDS011;10018;51.230;7.860;2024-03-25T08:51:57;18.83;;;4.60;;
19733;SDS011;10018;51.230;7.860;2024-03-25T08:54:22;21.67;;;4.73;;
19733;SDS011;10018;51.230;7.860;2024-03-25T08:56:48;43.43;;;16.83;;
19733;SDS011;10018;51.230;7.860;2024-03-25T08:59:16;20.93;;;5.90;;
19733;SDS011;10018;51.230;7.860;2024-03-25T09:01:42;14.00;;;3.70;;
19733;SDS011;10018;51.230;7.860;2024-03-25T09:04:07;14.63;;;2.67;;
19733;SDS011;10018;51.230;7.860;2024-03-25T09:06:35;16.87;;;3.47;;
19733;SDS011;10018;51.230;7.860;2024-03-25T09:09:02;17.07;;;3.40;;
19733;SDS011;10018;51.230;7.860;2024-03-25T09:11:46;14.07;;;2.90;;
19733;SDS011;10018;51.230;7.860;2024-03-25T09:14:12;13.20;;;2.50;;
19733;SDS011;10018;51.230;7.860;2024-03-25T09:16:38;11.20;;;3.23;;
19733;SDS011;10018;51.230;7.860;2024-03-25T09:19:03;14.23;;;2.90;;
19733;SDS011;10018;51.230;7.860;2024-03-25T09:21:29;19.87;;;3.37;;
19733;SDS011;10018;51.230;7.860;2024-03-25T09:23:56;10.43;;;2.60;;
19733;SDS011;10018;51.230;7.860;2024-03-25T09:26:24;13.53;;;3.33;;
19733;SDS011;10018;51.230;7.860;2024-03-25T09:28:51;11.33;;;2.63;;
19733;SDS011;10018;51.230;7.860;2024-03-25T09:31:17;9.33;;;2.23;;
19733;SDS011;10018;51.230;7.860;2024-03-25T09:33:42;17.57;;;2.93;;
19733;SDS011;10018;51.230;7.860;2024-03-25T09:36:08;7.53;;;2.20;;
19733;SDS011;10018;51.230;7.860;2024-03-25T09:38:34;13.50;;;2.73;;
19733;SDS011;10018;51.230;7.860;2024-03-25T09:41:02;9.57;;;2.53;;
19733;SDS011;10018;51.230;7.860;2024-03-25T09:43:41;9.27;;;2.17;;
19733;SDS011;10018;51.230;7.860;2024-03-25T09:46:10;14.00;;;2.77;;
19733;SDS011;10018;51.230;7.860;2024-03-25T09:48:36;8.63;;;2.63;;
19733;SDS011;10018;51.230;7.860;2024-03-25T09:51:03;11.63;;;3.77;;
19733;SDS011;10018;51.230;7.860;2024-03-25T09:53:29;10.00;;;2.90;;
19733;SDS011;10018;51.230;7.860;2024-03-25T09:55:57;14.03;;;3.13;;
19733;SDS011;10018;51.230;7.860;2024-03-25T09:58:24;9.50;;;2.30;;
19733;SDS011;10018;51.230;7.860;2024-03-25T10:00:51;8.70;;;3.03;;
19733;SDS011;10018;51.230;7.860;2024-03-25T10:03:16;12.60;;;3.70;;
19733;SDS011;10018;51.230;7.860;2024-03-25T10:05:42;8.60;;;3.20;;
19733;SDS011;10018;51.230;7.860;2024-03-25T10:08:08;11.90;;;3.93;;
19733;SDS011;10018;51.230;7.860;2024-03-25T10:10:34;9.23;;;2.80;;
19733;SDS011;10018;51.230;7.860;2024-03-25T10:13:02;13.37;;;2.97;;
19733;SDS011;10018;51.230;7.860;2024-03-25T10:15:29;8.50;;;2.70;;
19733;SDS011;10018;51.230;7.860;2024-03-25T10:17:55;12.27;;;3.07;;
19733;SDS011;10018;51.230;7.860;2024-03-25T10:20:21;8.17;;;2.30;;
19733;SDS011;10018;51.230;7.860;2024-03-25T10:22:47;9.87;;;2.87;;
19733;SDS011;10018;51.230;7.860;2024-03-25T10:25:23;9.23;;;2.87;;
19733;SDS011;10018;51.230;7.860;2024-03-25T10:27:56;10.90;;;2.30;;
19733;SDS011;10018;51.230;7.860;2024-03-25T10:30:25;11.37;;;2.50;;
19733;SDS011;10018;51.230;7.860;2024-03-25T10:33:01;12.37;;;2.80;;
19733;SDS011;10018;51.230;7.860;2024-03-25T10:35:28;9.90;;;2.97;;
19733;SDS011;10018;51.230;7.860;2024-03-25T10:37:56;9.17;;;2.70;;
19733;SDS011;10018;51.230;7.860;2024-03-25T10:40:29;12.67;;;2.47;;
19733;SDS011;10018;51.230;7.860;2024-03-25T10:43:00;8.97;;;2.63;;
19733;SDS011;10018;51.230;7.860;2024-03-25T10:45:28;9.87;;;2.60;;
19733;SDS011;10018;51.230;7.860;2024-03-25T10:47:58;8.53;;;2.40;;
19733;SDS011;10018;51.230;7.860;2024-03-25T10:50:31;11.23;;;2.80;;
19733;SDS011;10018;51.230;7.860;2024-03-25T10:52:59;9.63;;;2.20;;
19733;SDS011;10018;51.230;7.860;2024-03-25T10:55:29;9.77;;;2.90;;
19733;SDS011;10018;51.230;7.860;2024-03-25T10:57:58;6.83;;;2.40;;
19733;SDS011;10018;51.230;7.860;2024-03-25T11:00:25;11.10;;;3.10;;
19733;SDS011;10018;51.230;7.860;2024-03-25T11:02:51;12.00;;;2.80;;
19733;SDS011;10018;51.230;7.860;2024-03-25T11:05:18;9.07;;;2.80;;
19733;SDS011;10018;51.230;7.860;2024-03-25T11:07:44;8.93;;;3.00;;
19733;SDS011;10018;51.230;7.860;2024-03-25T11:10:11;14.13;;;3.90;;
19733;SDS011;10018;51.230;7.860;2024-03-25T11:12:40;9.40;;;2.90;;
19733;SDS011;10018;51.230;7.860;2024-03-25T11:15:07;10.83;;;2.67;;
19733;SDS011;10018;51.230;7.860;2024-03-25T11:17:33;6.33;;;2.57;;
19733;SDS011;10018;51.230;7.860;2024-03-25T11:20:15;10.10;;;2.70;;
19733;SDS011;10018;51.230;7.860;2024-03-25T11:22:53;8.60;;;3.27;;
19733;SDS011;10018;51.230;7.860;2024-03-25T11:25:24;9.60;;;2.97;;
19733;SDS011;10018;51.230;7.860;2024-03-25T11:27:52;9.30;;;3.07;;
19733;SDS011;10018;51.230;7.860;2024-03-25T11:30:18;8.03;;;2.67;;
19733;SDS011;10018;51.230;7.860;2024-03-25T11:32:49;10.57;;;3.13;;
19733;SDS011;10018;51.230;7.860;2024-03-25T11:35:17;5.83;;;2.00;;
19733;SDS011;10018;51.230;7.860;2024-03-25T11:37:43;8.63;;;1.90;;
19733;SDS011;10018;51.230;7.860;2024-03-25T11:40:12;7.60;;;2.17;;
19733;SDS011;10018;51.230;7.860;2024-03-25T11:42:39;9.53;;;2.03;;
19733;SDS011;10018;51.230;7.860;2024-03-25T11:45:15;7.03;;;2.00;;
19733;SDS011;10018;51.230;7.860;2024-03-25T11:47:45;8.07;;;2.10;;
19733;SDS011;10018;51.230;7.860;2024-03-25T11:50:15;8.07;;;2.20;;
19733;SDS011;10018;51.230;7.860;2024-03-25T11:52:44;5.47;;;1.83;;
19733;SDS011;10018;51.230;7.860;2024-03-25T11:55:17;5.67;;;1.60;;
19733;SDS011;10018;51.230;7.860;2024-03-25T11:57:42;7.03;;;2.00;;
19733;SDS011;10018;51.230;7.860;2024-03-25T12:00:08;11.07;;;2.23;;
19733;SDS011;10018;51.230;7.860;2024-03-25T12:02:45;10.70;;;2.33;;
19733;SDS011;10018;51.230;7.860;2024-03-25T12:05:11;11.77;;;2.10;;
19733;SDS011;10018;51.230;7.860;2024-03-25T12:07:37;9.53;;;2.00;;
19733;SDS011;10018;51.230;7.860;2024-03-25T12:10:03;10.07;;;2.03;;
19733;SDS011;10018;51.230;7.860;2024-03-25T12:12:47;7.37;;;2.00;;
19733;SDS011;10018;51.230;7.860;2024-03-25T12:15:13;6.23;;;1.77;;
19733;SDS011;10018;51.230;7.860;2024-03-25T12:17:39;8.40;;;1.90;;
19733;SDS011;10018;51.230;7.860;2024-03-25T12:22:34;10.17;;;2.23;;
19733;SDS011;10018;51.230;7.860;2024-03-25T12:25:04;8.17;;;2.00;;
19733;SDS011;10018;51.230;7.860;2024-03-25T12:27:31;9.33;;;2.30;;
19733;SDS011;10018;51.230;7.860;2024-03-25T12:29:58;5.57;;;2.10;;
19733;SDS011;10018;51.230;7.860;2024-03-25T12:32:30;8.30;;;2.00;;
19733;SDS011;10018;51.230;7.860;2024-03-25T12:35:09;5.13;;;1.50;;
19733;SDS011;10018;51.230;7.860;2024-03-25T12:37:36;6.83;;;2.10;;
19733;SDS011;10018;51.230;7.860;2024-03-25T12:40:06;7.53;;;1.70;;
19733;SDS011;10018;51.230;7.860;2024-03-25T12:42:33;6.17;;;1.77;;
19733;SDS011;10018;51.230;7.860;2024-03-25T12:44:59;8.67;;;1.83;;
19733;SDS011;10018;51.230;7.860;2024-03-25T12:47:25;8.83;;;1.60;;
19733;SDS011;10018;51.230;7.860;2024-03-25T12:49:51;7.83;;;1.60;;
19733;SDS011;10018;51.230;7.860;2024-03-25T12:52:17;6.67;;;1.40;;
19733;SDS011;10018;51.230;7.860;2024-03-25T12:54:43;8.20;;;1.80;;
19733;SDS011;10018;51.230;7.860;2024-03-25T12:57:09;7.10;;;1.97;;
19733;SDS011;10018;51.230;7.860;2024-03-25T12:59:36;9.13;;;1.97;;
19733;SDS011;10018;51.230;7.860;2024-03-25T13:02:01;7.33;;;1.90;;
19733;SDS011;10018;51.230;7.860;2024-03-25T13:04:27;10.60;;;1.90;;
19733;SDS011;10018;51.230;7.860;2024-03-25T13:06:53;7.97;;;2.00;;
19733;SDS011;10018;51.230;7.860;2024-03-25T13:09:18;7.73;;;1.77;;
19733;SDS011;10018;51.230;7.860;2024-03-25T13:11:44;6.07;;;1.70;;
19733;SDS011;10018;51.230;7.860;2024-03-25T13:14:13;5.33;;;1.57;;
19733;SDS011;10018;51.230;7.860;2024-03-25T13:16:39;10.37;;;1.80;;
19733;SDS011;10018;51.230;7.860;2024-03-25T13:19:05;8.00;;;1.47;;
19733;SDS011;10018;51.230;7.860;2024-03-25T13:21:31;6.67;;;1.77;;
19733;SDS011;10018;51.230;7.860;2024-03-25T13:23:57;8.77;;;1.60;;
19733;SDS011;10018;51.230;7.860;2024-03-25T13:26:23;4.47;;;1.30;;
19733;SDS011;10018;51.230;7.860;2024-03-25T13:28:48;6.50;;;2.10;;
19733;SDS011;10018;51.230;7.860;2024-03-25T13:31:14;7.07;;;1.63;;
19733;SDS011;10018;51.230;7.860;2024-03-25T13:33:41;7.97;;;1.70;;
19733;SDS011;10018;51.230;7.860;2024-03-25T13:36:06;11.43;;;2.50;;
19733;SDS011;10018;51.230;7.860;2024-03-25T13:38:32;8.10;;;1.60;;
19733;SDS011;10018;51.230;7.860;2024-03-25T13:41:01;7.87;;;1.70;;
19733;SDS011;10018;51.230;7.860;2024-03-25T13:43:31;7.80;;;1.60;;
19733;SDS011;10018;51.230;7.860;2024-03-25T13:45:56;5.17;;;1.60;;
19733;SDS011;10018;51.230;7.860;2024-03-25T13:48:22;8.33;;;1.80;;
19733;SDS011;10018;51.230;7.860;2024-03-25T13:50:48;9.53;;;1.80;;
19733;SDS011;10018;51.230;7.860;2024-03-25T13:53:14;8.37;;;1.97;;
19733;SDS011;10018;51.230;7.860;2024-03-25T13:55:41;4.33;;;1.43;;
19733;SDS011;10018;51.230;7.860;2024-03-25T13:58:07;4.97;;;1.50;;
19733;SDS011;10018;51.230;7.860;2024-03-25T14:00:33;6.93;;;2.00;;
19733;SDS011;10018;51.230;7.860;2024-03-25T14:03:01;6.67;;;1.70;;
19733;SDS011;10018;51.230;7.860;2024-03-25T14:05:27;9.07;;;2.27;;
19733;SDS011;10018;51.230;7.860;2024-03-25T14:07:52;5.60;;;1.40;;
19733;SDS011;10018;51.230;7.860;2024-03-25T14:10:18;5.03;;;1.77;;
19733;SDS011;10018;51.230;7.860;2024-03-25T14:12:44;6.33;;;1.53;;
19733;SDS011;10018;51.230;7.860;2024-03-25T14:15:10;9.27;;;1.67;;
19733;SDS011;10018;51.230;7.860;2024-03-25T14:17:37;7.10;;;1.57;;
19733;SDS011;10018;51.230;7.860;2024-03-25T14:20:07;6.47;;;1.80;;
19733;SDS011;10018;51.230;7.860;2024-03-25T14:22:34;4.97;;;1.20;;
19733;SDS011;10018;51.230;7.860;2024-03-25T14:24:59;27.80;;;14.47;;
19733;SDS011;10018;51.230;7.860;2024-03-25T14:27:25;6.90;;;2.00;;
19733;SDS011;10018;51.230;7.860;2024-03-25T14:29:51;7.17;;;1.60;;
19733;SDS011;10018;51.230;7.860;2024-03-25T14:32:20;5.27;;;1.40;;
19733;SDS011;10018;51.230;7.860;2024-03-25T14:34:46;6.17;;;1.40;;
19733;SDS011;10018;51.230;7.860;2024-03-25T14:37:13;7.17;;;1.40;;
19733;SDS011;10018;51.230;7.860;2024-03-25T14:39:39;5.87;;;1.50;;